Time;durP1;ratioP1;P1;durP2;ratioP2;P2;SDS_P1;SDS_P2;PMS_P1;PMS_P2;Temp;Humidity;BMP_temperature;BMP_pressure;BME280_temperature;BME280_humidity;BME280_pressure;Samples;Min_cycle;Max_cycle;Signal;HPM_P1;HPM_P2
2022/12/15 00:39:24;;;;;;;34.07;22.87;;;0.20;99.90;;;;;;6153459;28;20798;-64
2022/12/15 00:42:28;;;;;;;27.80;22.67;;;0.20;99.90;;;;;;6153103;28;20486;-64
2022/12/15 00:48:48;;;;;;;36.17;23.00;;;0.30;99.90;;;;;;6152798;28;20986;-64
2022/12/15 01:22:01;;;;;;;33.80;22.73;;;0.50;99.90;;;;;;6142134;28;20467;-64
2022/12/15 01:25:07;;;;;;;32.70;23.53;;;0.60;99.90;;;;;;6131080;28;20476;-64
2022/12/15 01:28:10;;;;;;;32.23;23.17;;;0.60;99.90;;;;;;6177459;28;20469;-64
2022/12/15 01:31:14;;;;;;;34.50;21.47;;;0.70;99.90;;;;;;6177834;28;21101;-64
2022/12/15 01:34:18;;;;;;;40.43;25.50;;;0.70;99.90;;;;;;6129826;28;20480;-64
2022/12/15 01:37:22;;;;;;;33.03;23.40;;;0.60;99.90;;;;;;6129903;28;20551;-64
2022/12/15 01:43:46;;;;;;;36.43;24.60;;;0.70;99.90;;;;;;6122633;28;20476;-64
2022/12/15 01:46:55;;;;;;;33.90;23.30;;;0.60;99.90;;;;;;6129496;28;20757;-64
2022/12/15 01:49:58;;;;;;;30.70;22.67;;;0.70;99.90;;;;;;6129750;28;20953;-64
2022/12/15 01:53:03;;;;;;;33.70;25.53;;;0.70;99.90;;;;;;6129158;28;20480;-64
2022/12/15 01:56:09;;;;;;;34.13;24.30;;;0.70;99.90;;;;;;6150880;28;20930;-64
2022/12/15 01:59:16;;;;;;;29.30;23.00;;;0.70;99.90;;;;;;6177627;28;20585;-64
2022/12/15 02:02:22;;;;;;;33.20;24.40;;;0.70;99.90;;;;;;6177363;28;20990;-63
2022/12/15 02:05:25;;;;;;;38.63;26.67;;;0.70;99.90;;;;;;6178464;28;20590;-63
2022/12/15 02:08:30;;;;;;;32.03;22.40;;;0.60;99.90;;;;;;6176876;28;20814;-63
2022/12/15 02:11:56;;;;;;;33.60;23.10;;;0.60;99.90;;;;;;6177662;28;20486;-63
2022/12/15 02:15:16;;;;;;;32.23;23.63;;;0.70;99.90;;;;;;6177282;28;20810;-63
2022/12/15 02:18:23;;;;;;;37.20;23.27;;;0.70;99.90;;;;;;6176378;28;20818;-63
2022/12/15 02:21:31;;;;;;;35.77;24.47;;;0.80;99.90;;;;;;6176679;28;20478;-64
2022/12/15 02:24:51;;;;;;;33.57;22.83;;;0.70;99.90;;;;;;6176749;28;20860;-63
2022/12/15 02:28:02;;;;;;;31.53;22.03;;;0.70;99.90;;;;;;6177934;28;20532;-63
2022/12/15 02:34:39;;;;;;;33.23;23.37;;;0.70;99.90;;;;;;6104811;29;20503;-62
2022/12/15 02:37:42;;;;;;;29.87;23.10;;;0.60;99.90;;;;;;6129103;28;20511;-62
2022/12/15 02:40:45;;;;;;;33.93;23.63;;;0.70;99.90;;;;;;6128775;28;20948;-62
2022/12/15 02:43:49;;;;;;;30.40;23.23;;;0.70;99.90;;;;;;6128560;29;20807;-62
2022/12/15 02:47:13;;;;;;;34.17;23.40;;;0.70;99.90;;;;;;6128767;28;20463;-62
2022/12/15 02:50:41;;;;;;;32.80;22.77;;;0.70;99.90;;;;;;6128566;28;20472;-62
2022/12/15 02:54:10;;;;;;;27.60;20.80;;;0.70;99.90;;;;;;6128376;28;20495;-62
2022/12/15 02:57:21;;;;;;;30.80;22.23;;;0.80;99.90;;;;;;6171737;28;20474;-62
2022/12/15 03:00:24;;;;;;;30.93;22.00;;;0.90;99.90;;;;;;6175968;28;20552;-62
2022/12/15 03:03:31;;;;;;;29.70;21.87;;;0.90;99.90;;;;;;6175818;28;20519;-63
2022/12/15 03:06:35;;;;;;;27.47;23.23;;;0.90;99.90;;;;;;6175975;28;20488;-63
2022/12/15 03:09:38;;;;;;;36.37;24.37;;;0.90;99.90;;;;;;6176642;28;20485;-62
2022/12/15 03:12:42;;;;;;;31.43;23.47;;;0.80;99.90;;;;;;6176825;28;20487;-63
2022/12/15 03:15:45;;;;;;;29.27;22.27;;;0.70;99.90;;;;;;6177000;28;20486;-63
2022/12/15 03:18:50;;;;;;;30.57;23.73;;;0.80;99.90;;;;;;6176056;28;20466;-62
2022/12/15 03:21:53;;;;;;;30.83;24.20;;;0.70;99.90;;;;;;6179750;28;20490;-63
2022/12/15 03:24:56;;;;;;;37.40;24.43;;;0.70;99.90;;;;;;6179536;28;20485;-62
2022/12/15 03:27:59;;;;;;;34.07;23.50;;;0.70;99.90;;;;;;6179084;28;20469;-63
2022/12/15 03:31:02;;;;;;;30.80;23.47;;;0.70;99.90;;;;;;6179008;28;20469;-63
2022/12/15 03:34:07;;;;;;;32.20;23.70;;;0.70;99.90;;;;;;6155815;28;20963;-63
2022/12/15 03:37:10;;;;;;;28.50;22.17;;;0.70;99.90;;;;;;6155027;28;21017;-63
2022/12/15 03:40:13;;;;;;;33.80;21.80;;;0.70;99.90;;;;;;6155983;28;20470;-63
2022/12/15 03:43:16;;;;;;;36.97;25.70;;;0.70;99.90;;;;;;6156351;28;21286;-63
2022/12/15 03:46:20;;;;;;;29.77;22.67;;;0.80;99.90;;;;;;6156064;28;20478;-64
2022/12/15 03:49:24;;;;;;;26.97;20.80;;;0.80;99.90;;;;;;6156203;28;21010;-63
2022/12/15 03:52:27;;;;;;;35.10;23.07;;;0.90;99.90;;;;;;6155729;28;20474;-64
2022/12/15 03:55:31;;;;;;;31.13;22.80;;;0.90;99.90;;;;;;6163951;28;20481;-63
2022/12/15 03:58:34;;;;;;;33.80;23.63;;;0.90;99.90;;;;;;6179792;28;20488;-64
2022/12/15 04:01:37;;;;;;;30.13;21.80;;;0.90;99.90;;;;;;6179912;28;20485;-64
2022/12/15 04:04:42;;;;;;;29.90;21.63;;;1.00;99.90;;;;;;6174917;28;20804;-64
2022/12/15 04:07:45;;;;;;;34.77;26.00;;;1.00;99.90;;;;;;6179530;28;20457;-63
2022/12/15 04:10:48;;;;;;;32.43;24.00;;;1.00;99.90;;;;;;6179997;28;20772;-63
2022/12/15 04:13:51;;;;;;;33.37;24.00;;;1.00;99.90;;;;;;6179628;28;20528;-63
2022/12/15 04:16:54;;;;;;;29.70;24.50;;;0.90;99.90;;;;;;6179693;28;20442;-63
2022/12/15 04:20:11;;;;;;;28.17;22.27;;;0.90;99.90;;;;;;6179406;28;20454;-63
2022/12/15 04:23:14;;;;;;;31.83;24.57;;;0.90;99.90;;;;;;6179309;28;20486;-62
2022/12/15 05:33:21;;;;;;;35.27;25.30;;;0.30;99.90;;;;;;6161047;28;20985;-63
2022/12/15 05:36:24;;;;;;;37.77;25.23;;;0.30;99.90;;;;;;6153155;28;20816;-64
2022/12/15 05:39:27;;;;;;;33.47;25.63;;;0.30;99.90;;;;;;6153601;28;20486;-64
2022/12/15 05:42:32;;;;;;;34.60;26.70;;;0.20;99.90;;;;;;6152912;28;20868;-64
2022/12/15 05:45:35;;;;;;;35.97;25.70;;;0.20;99.90;;;;;;6153340;28;20795;-64
2022/12/15 05:48:39;;;;;;;41.37;25.37;;;0.20;99.90;;;;;;6153522;28;20481;-64
2022/12/15 05:51:44;;;;;;;37.30;25.80;;;0.20;99.90;;;;;;6153382;28;20459;-64
2022/12/15 05:54:47;;;;;;;46.87;28.27;;;0.20;99.90;;;;;;6153400;28;20501;-64
2022/12/15 05:57:52;;;;;;;37.10;27.97;;;0.10;99.90;;;;;;6153438;28;20485;-64
2022/12/15 06:01:03;;;;;;;32.93;26.00;;;0.10;99.90;;;;;;6153725;28;20576;-64
2022/12/15 06:04:07;;;;;;;36.77;27.13;;;0.10;99.90;;;;;;6152924;28;20509;-64
2022/12/15 06:07:10;;;;;;;37.67;27.70;;;0.20;99.90;;;;;;6153307;28;20545;-64
2022/12/15 06:10:13;;;;;;;41.73;28.90;;;0.20;99.90;;;;;;6153209;28;20478;-64
2022/12/15 06:13:18;;;;;;;35.37;26.87;;;0.20;99.90;;;;;;6144111;28;20498;-64
2022/12/15 06:16:23;;;;;;;36.07;26.37;;;0.30;99.90;;;;;;6153002;28;20868;-64
2022/12/15 06:19:26;;;;;;;38.97;29.87;;;0.20;99.90;;;;;;6152930;28;20470;-64
2022/12/15 06:22:30;;;;;;;44.63;29.30;;;0.20;99.90;;;;;;6152963;28;20491;-64
2022/12/15 06:25:33;;;;;;;62.90;34.03;;;0.20;99.90;;;;;;6152839;28;20477;-63
2022/12/15 06:28:38;;;;;;;36.43;26.10;;;0.20;99.90;;;;;;6142153;28;20476;-63
2022/12/15 06:31:41;;;;;;;31.70;26.60;;;0.10;99.90;;;;;;6133711;28;20470;-63
2022/12/15 06:34:45;;;;;;;40.27;25.53;;;0.10;99.90;;;;;;6152972;28;20554;-63
2022/12/15 06:37:48;;;;;;;39.90;25.50;;;0.10;99.90;;;;;;6152770;28;20468;-63
2022/12/15 06:40:55;;;;;;;31.50;24.67;;;0.10;99.90;;;;;;6152753;28;20888;-63
2022/12/15 06:44:00;;;;;;;40.03;28.37;;;0.10;99.90;;;;;;6152529;28;20949;-63
2022/12/15 06:47:03;;;;;;;41.77;29.33;;;0.20;99.90;;;;;;6153106;28;20995;-63
2022/12/15 06:50:07;;;;;;;37.03;26.30;;;0.20;99.90;;;;;;6152357;28;20520;-63
2022/12/15 06:53:10;;;;;;;37.10;23.90;;;0.20;99.90;;;;;;6152331;28;20562;-63
2022/12/15 06:56:17;;;;;;;33.90;25.93;;;0.20;99.90;;;;;;6171266;28;20476;-62
2022/12/15 06:59:21;;;;;;;31.37;23.57;;;0.20;99.90;;;;;;6181869;28;20470;-62
2022/12/15 07:02:25;;;;;;;31.47;24.23;;;0.20;99.90;;;;;;6181330;28;20892;-63
2022/12/15 07:05:31;;;;;;;35.80;24.70;;;0.20;99.90;;;;;;6181504;28;20553;-64
2022/12/15 07:08:34;;;;;;;39.63;26.53;;;0.20;99.90;;;;;;6181401;28;20482;-63
2022/12/15 07:11:44;;;;;;;35.27;24.37;;;0.20;99.90;;;;;;6180997;28;20824;-64
2022/12/15 07:14:49;;;;;;;38.43;24.70;;;0.20;99.90;;;;;;6172478;28;20918;-64
2022/12/15 07:17:55;;;;;;;34.50;25.63;;;0.20;99.90;;;;;;6181305;28;20478;-64
2022/12/15 07:21:03;;;;;;;32.00;24.40;;;0.30;99.90;;;;;;6180713;28;20470;-64
2022/12/15 07:24:06;;;;;;;38.70;27.60;;;0.40;99.90;;;;;;6180751;28;20804;-64
2022/12/15 07:27:10;;;;;;;35.60;24.90;;;0.30;99.90;;;;;;6180874;28;20567;-64
2022/12/15 07:30:16;;;;;;;31.90;26.10;;;0.40;99.90;;;;;;6181329;28;20477;-63
2022/12/15 07:33:19;;;;;;;30.30;24.40;;;0.40;99.90;;;;;;6164861;28;20792;-63
2022/12/15 07:36:22;;;;;;;33.40;25.77;;;0.50;99.90;;;;;;6160317;28;20818;-63
2022/12/15 07:39:26;;;;;;;30.83;24.90;;;0.50;99.90;;;;;;6159536;28;20486;-63
2022/12/15 07:42:29;;;;;;;35.80;25.00;;;0.60;99.90;;;;;;6156165;28;20493;-63
2022/12/15 07:45:34;;;;;;;39.27;27.60;;;0.60;99.90;;;;;;6156529;28;20498;-63
2022/12/15 07:48:37;;;;;;;32.37;25.20;;;0.70;99.90;;;;;;6156303;28;20486;-63
2022/12/15 07:51:41;;;;;;;32.20;25.10;;;0.70;99.90;;;;;;6156328;28;20574;-63
2022/12/15 07:54:44;;;;;;;34.80;24.57;;;0.70;99.90;;;;;;6157544;28;20493;-63
2022/12/15 07:57:47;;;;;;;32.73;24.57;;;0.70;99.90;;;;;;6179905;28;20532;-64
2022/12/15 08:00:52;;;;;;;37.07;27.00;;;0.80;99.90;;;;;;6179944;28;20485;-64
2022/12/15 08:03:55;;;;;;;33.60;25.30;;;0.80;99.90;;;;;;6179580;28;20477;-64
2022/12/15 08:06:59;;;;;;;35.37;24.40;;;0.90;99.90;;;;;;6179383;28;20920;-64
2022/12/15 08:10:02;;;;;;;36.03;24.57;;;1.00;99.90;;;;;;6179656;28;20958;-64
2022/12/15 08:13:05;;;;;;;34.90;26.90;;;1.10;99.90;;;;;;6179790;28;20474;-63
2022/12/15 08:16:10;;;;;;;38.20;25.40;;;1.20;99.90;;;;;;6179484;28;20486;-63
2022/12/15 08:19:15;;;;;;;30.50;24.00;;;1.20;99.90;;;;;;6175244;28;20481;-63
2022/12/15 08:22:18;;;;;;;35.90;25.57;;;1.30;99.90;;;;;;6178893;28;20822;-63
2022/12/15 08:25:22;;;;;;;32.00;25.00;;;1.40;99.90;;;;;;6179331;28;20474;-63
2022/12/15 08:28:25;;;;;;;37.10;26.73;;;1.50;99.90;;;;;;6179021;28;21008;-64
2022/12/15 08:31:31;;;;;;;35.90;25.50;;;1.60;99.90;;;;;;6177386;28;20481;-63
2022/12/15 08:34:35;;;;;;;36.93;25.63;;;1.70;99.90;;;;;;6153242;28;20774;-63
2022/12/15 08:37:39;;;;;;;32.37;25.50;;;1.70;99.90;;;;;;6154956;28;20486;-63
2022/12/15 08:40:42;;;;;;;39.30;26.47;;;1.80;99.90;;;;;;6131237;28;20459;-63
2022/12/15 08:43:46;;;;;;;33.67;25.43;;;1.80;99.90;;;;;;6144973;28;20506;-64
2022/12/15 08:46:52;;;;;;;38.17;27.23;;;1.80;99.90;;;;;;6155156;28;20514;-63
2022/12/15 08:49:56;;;;;;;37.33;26.17;;;1.90;99.90;;;;;;6154306;28;20455;-63
2022/12/15 08:52:59;;;;;;;36.63;25.60;;;2.00;99.90;;;;;;6154506;28;20496;-63
2022/12/15 08:56:24;;;;;;;33.83;26.10;;;2.10;99.90;;;;;;6168833;28;20964;-64
2022/12/15 08:59:27;;;;;;;34.30;26.60;;;2.20;99.90;;;;;;6177508;28;20853;-61
2022/12/15 09:02:32;;;;;;;32.67;25.10;;;2.40;99.70;;;;;;6154014;28;20482;-61
2022/12/15 09:05:35;;;;;;;36.70;27.53;;;2.40;99.40;;;;;;6154333;28;20483;-61
2022/12/15 09:08:39;;;;;;;37.37;28.13;;;2.50;99.20;;;;;;6154357;28;20486;-60
2022/12/15 09:11:42;;;;;;;41.07;27.63;;;2.70;99.20;;;;;;6154184;28;20467;-60
2022/12/15 09:14:45;;;;;;;46.03;29.33;;;2.70;98.90;;;;;;6153927;28;20486;-60
2022/12/15 09:17:49;;;;;;;37.57;27.37;;;2.80;98.60;;;;;;6152694;28;20471;-62
2022/12/15 09:20:53;;;;;;;36.20;28.07;;;2.90;98.70;;;;;;6153967;28;20488;-61
2022/12/15 09:23:59;;;;;;;37.00;28.87;;;2.90;98.60;;;;;;6153475;28;20479;-62
2022/12/15 09:27:03;;;;;;;41.00;29.07;;;2.80;98.30;;;;;;6153542;28;20570;-61
2022/12/15 09:30:08;;;;;;;37.47;28.27;;;2.90;98.70;;;;;;6153727;28;20475;-62
2022/12/15 09:33:12;;;;;;;46.00;31.90;;;2.90;98.30;;;;;;6153024;28;20475;-61
2022/12/15 09:36:16;;;;;;;41.00;30.57;;;3.00;98.60;;;;;;6153640;28;20471;-61
2022/12/15 09:39:19;;;;;;;42.40;29.47;;;3.10;98.60;;;;;;6153578;28;20832;-62
2022/12/15 09:42:24;;;;;;;37.40;29.07;;;3.10;98.40;;;;;;6153325;28;20793;-62
2022/12/15 09:45:34;;;;;;;42.33;29.43;;;3.30;98.30;;;;;;6153464;28;20462;-60
2022/12/15 09:48:41;;;;;;;41.07;29.57;;;3.40;98.30;;;;;;6153809;28;20533;-61
2022/12/15 09:51:55;;;;;;;40.57;28.33;;;3.70;98.10;;;;;;6154236;28;20485;-61
2022/12/15 09:55:00;;;;;;;43.23;27.87;;;4.30;97.80;;;;;;6156503;28;20485;-61
2022/12/15 09:58:12;;;;;;;36.80;27.40;;;4.90;96.60;;;;;;6176919;28;20473;-63
2022/12/15 10:01:27;;;;;;;42.83;29.23;;;5.20;95.00;;;;;;6180124;28;20485;-62
2022/12/15 10:04:41;;;;;;;45.97;29.83;;;5.50;94.60;;;;;;6177239;28;20478;-63
2022/12/15 10:07:46;;;;;;;36.77;28.57;;;6.00;93.90;;;;;;6177012;28;20530;-63
2022/12/15 10:10:56;;;;;;;39.37;27.90;;;6.20;93.20;;;;;;6176989;28;20430;-61
2022/12/15 10:14:06;;;;;;;44.77;30.60;;;6.40;92.60;;;;;;6176818;28;20478;-60
2022/12/15 10:17:20;;;;;;;40.30;31.40;;;6.40;92.30;;;;;;6176492;28;20458;-61
2022/12/15 10:20:26;;;;;;;36.00;30.23;;;6.60;92.10;;;;;;6176252;28;20949;-60
2022/12/15 10:23:29;;;;;;;45.80;32.90;;;7.00;91.70;;;;;;6176443;28;20489;-61
2022/12/15 10:26:35;;;;;;;39.77;30.60;;;7.00;90.60;;;;;;6171912;28;20474;-60
2022/12/15 10:29:43;;;;;;;40.77;31.30;;;6.70;90.50;;;;;;6175948;28;20482;-60
2022/12/15 10:33:01;;;;;;;40.87;31.13;;;6.40;91.10;;;;;;6163067;28;20498;-61
2022/12/15 10:36:10;;;;;;;46.50;31.03;;;6.40;91.30;;;;;;6152392;28;20490;-61
2022/12/15 10:39:13;;;;;;;39.10;31.10;;;6.60;91.20;;;;;;6152145;28;20891;-60
2022/12/15 10:42:21;;;;;;;41.90;31.43;;;6.40;91.50;;;;;;6152187;28;20562;-63
2022/12/15 10:45:34;;;;;;;39.93;31.20;;;6.60;91.40;;;;;;6152041;28;20487;-60
2022/12/15 10:48:37;;;;;;;43.63;31.17;;;6.30;91.90;;;;;;6151942;28;20474;-61
2022/12/15 10:51:47;;;;;;;39.23;31.40;;;6.00;92.50;;;;;;6152072;28;20950;-59
2022/12/15 10:54:52;;;;;;;40.60;30.20;;;6.20;92.10;;;;;;6154299;28;20482;-59
2022/12/15 10:57:59;;;;;;;36.97;29.43;;;6.10;92.50;;;;;;6138091;28;20711;-59
2022/12/15 11:01:07;;;;;;;38.43;32.00;;;6.40;92.20;;;;;;6134948;28;20541;-60
2022/12/15 11:04:25;;;;;;;38.23;29.40;;;6.20;92.20;;;;;;6147663;28;20478;-59
2022/12/15 11:07:35;;;;;;;39.47;29.73;;;6.30;92.20;;;;;;6151826;28;20481;-59
2022/12/15 11:14:15;;;;;;;45.97;30.33;;;6.50;92.00;;;;;;6151228;28;20475;-59
2022/12/15 11:17:19;;;;;;;40.53;30.07;;;7.90;91.50;;;;;;6151855;28;20780;-59
2022/12/15 11:20:28;;;;;;;34.73;28.93;;;9.60;86.80;;;;;;6151260;28;20818;-59
2022/12/15 11:23:50;;;;;;;39.00;29.40;;;9.80;81.80;;;;;;6151440;28;20486;-58
2022/12/15 11:26:57;;;;;;;36.97;28.03;;;9.20;81.70;;;;;;6151856;28;20507;-59
2022/12/15 11:30:04;;;;;;;30.70;27.40;;;9.20;82.40;;;;;;6143177;28;20932;-59
2022/12/15 11:33:09;;;;;;;38.23;30.97;;;10.70;79.10;;;;;;6151184;28;20494;-59
2022/12/15 11:36:20;;;;;;;39.03;30.43;;;13.30;69.90;;;;;;6151452;28;20533;-59
2022/12/15 11:39:45;;;;;;;34.07;30.33;;;15.20;58.70;;;;;;6151884;28;20482;-59
2022/12/15 11:43:05;;;;;;;34.87;29.17;;;16.40;52.40;;;;;;6154255;28;20474;-59
2022/12/15 11:46:19;;;;;;;32.37;28.10;;;17.70;46.70;;;;;;6140826;28;20481;-59
2022/12/15 11:49:51;;;;;;;34.10;30.67;;;18.30;42.80;;;;;;6142605;28;20477;-59
2022/12/15 11:53:14;;;;;;;31.37;28.10;;;18.20;40.20;;;;;;6155219;28;20462;-60
2022/12/15 11:56:27;;;;;;;36.00;30.80;;;18.00;39.80;;;;;;6169565;28;20548;-60
2022/12/15 11:59:47;;;;;;;39.73;33.73;;;17.30;40.20;;;;;;6179551;28;20576;-60
2022/12/15 12:03:00;;;;;;;35.47;31.67;;;16.00;41.00;;;;;;6168385;28;20475;-60
2022/12/15 12:06:11;;;;;;;33.47;30.07;;;15.50;42.80;;;;;;6131312;28;20484;-60
2022/12/15 12:09:29;;;;;;;33.20;29.80;;;15.90;43.10;;;;;;6135648;28;20486;-59
2022/12/15 12:12:40;;;;;;;36.50;31.07;;;15.70;41.70;;;;;;6141019;28;20479;-59
2022/12/15 12:15:54;;;;;;;35.83;30.33;;;15.00;42.70;;;;;;6144733;28;20497;-59
2022/12/15 12:19:02;;;;;;;33.90;30.30;;;14.00;44.00;;;;;;6138896;28;20476;-58
2022/12/15 12:22:11;;;;;;;37.07;30.53;;;12.80;46.00;;;;;;6131107;28;20478;-60
2022/12/15 12:25:19;;;;;;;33.80;29.80;;;11.90;48.30;;;;;;6130901;28;20538;-58
2022/12/15 12:28:31;;;;;;;34.07;28.60;;;12.10;49.80;;;;;;6130855;28;20491;-58
2022/12/15 12:31:46;;;;;;;34.73;28.43;;;12.90;48.10;;;;;;6138454;28;20966;-59
2022/12/15 12:35:01;;;;;;;31.23;28.00;;;13.50;47.10;;;;;;6152628;28;20455;-60
2022/12/15 12:38:27;;;;;;;34.80;30.10;;;13.50;46.40;;;;;;6141871;28;20558;-59
2022/12/15 12:41:39;;;;;;;34.90;28.80;;;13.30;46.30;;;;;;6142204;28;20471;-59
2022/12/15 12:44:44;;;;;;;33.90;29.43;;;12.50;47.50;;;;;;6130857;28;20471;-60
2022/12/15 12:47:52;;;;;;;32.13;28.43;;;12.10;48.90;;;;;;6130206;28;20614;-59
2022/12/15 12:51:12;;;;;;;35.73;29.20;;;11.50;49.70;;;;;;6129382;28;20542;-59
2022/12/15 12:54:46;;;;;;;33.87;30.33;;;11.40;51.30;;;;;;6128499;28;20483;-59
2022/12/15 12:57:53;;;;;;;32.97;29.57;;;11.50;50.50;;;;;;6128855;28;20944;-59
2022/12/15 13:01:16;;;;;;;35.07;27.60;;;11.60;50.60;;;;;;6128689;28;20479;-59
2022/12/15 13:04:38;;;;;;;34.20;28.80;;;11.50;50.50;;;;;;6127960;28;20488;-59
2022/12/15 13:07:42;;;;;;;38.13;29.43;;;11.20;51.20;;;;;;6130096;28;20952;-58
2022/12/15 13:10:47;;;;;;;38.10;30.40;;;11.40;51.90;;;;;;6129792;28;20460;-58
2022/12/15 13:13:54;;;;;;;33.93;30.30;;;12.50;51.10;;;;;;6129575;28;20578;-59
2022/12/15 13:17:04;;;;;;;35.80;29.67;;;13.80;48.30;;;;;;6129603;28;20471;-59
2022/12/15 13:20:29;;;;;;;33.77;30.07;;;14.00;46.00;;;;;;6129785;28;20589;-59
2022/12/15 13:23:40;;;;;;;39.80;31.20;;;12.90;47.20;;;;;;6129862;28;20982;-59
2022/12/15 13:26:44;;;;;;;38.37;30.47;;;11.00;50.40;;;;;;6129626;28;20489;-58
2022/12/15 13:30:15;;;;;;;38.20;30.80;;;9.70;54.30;;;;;;6129368;28;20483;-59
2022/12/15 13:33:20;;;;;;;39.43;30.50;;;8.50;57.60;;;;;;6145380;28;20477;-59
2022/12/15 13:36:59;;;;;;;44.07;29.83;;;7.40;60.70;;;;;;6148648;28;20943;-59
2022/12/15 13:40:22;;;;;;;44.70;29.83;;;6.70;64.50;;;;;;6152644;28;20483;-59
2022/12/15 13:43:43;;;;;;;42.90;32.10;;;6.30;66.90;;;;;;6153236;28;20470;-60
2022/12/15 13:46:48;;;;;;;43.17;30.23;;;5.70;71.00;;;;;;6153283;28;20475;-59
2022/12/15 13:50:00;;;;;;;58.73;33.57;;;5.50;73.10;;;;;;6152714;28;20443;-58
2022/12/15 13:53:09;;;;;;;49.83;31.70;;;5.40;74.80;;;;;;6152647;28;20603;-58
2022/12/15 13:56:32;;;;;;;42.67;31.53;;;5.30;77.00;;;;;;6167539;28;20819;-58
2022/12/15 13:59:42;;;;;;;44.27;30.80;;;5.10;79.20;;;;;;6177103;28;20470;-58
2022/12/15 14:02:46;;;;;;;39.63;31.10;;;5.00;81.00;;;;;;6176870;28;20496;-58
2022/12/15 14:05:54;;;;;;;39.93;31.40;;;4.80;83.20;;;;;;6176849;28;20481;-59
2022/12/15 14:08:57;;;;;;;42.43;31.33;;;4.70;84.90;;;;;;6176823;28;20478;-58
2022/12/15 14:12:02;;;;;;;47.97;30.40;;;4.60;86.80;;;;;;6176869;28;20801;-58
2022/12/15 14:15:07;;;;;;;47.27;33.17;;;4.60;88.00;;;;;;6176964;28;20481;-58
2022/12/15 14:18:25;;;;;;;45.10;34.10;;;4.70;89.10;;;;;;6179759;28;20942;-59
2022/12/15 14:21:30;;;;;;;53.03;36.73;;;4.70;90.00;;;;;;6178375;28;20485;-58
2022/12/15 14:24:34;;;;;;;46.77;32.93;;;4.70;90.30;;;;;;6176627;28;20482;-58
2022/12/15 14:27:42;;;;;;;49.70;30.97;;;4.70;90.40;;;;;;6176587;28;20962;-59
2022/12/15 14:30:45;;;;;;;43.97;30.87;;;4.60;90.80;;;;;;6176209;28;20485;-58
2022/12/15 14:34:00;;;;;;;40.83;31.20;;;4.70;91.10;;;;;;6154993;28;20570;-59
2022/12/15 14:37:10;;;;;;;37.70;30.80;;;4.60;91.40;;;;;;6152631;28;20839;-60
2022/12/15 14:40:16;;;;;;;49.00;31.60;;;4.60;91.60;;;;;;6152292;28;20475;-60
2022/12/15 14:43:23;;;;;;;44.03;32.17;;;4.60;91.80;;;;;;6148737;28;20479;-60
2022/12/15 14:46:28;;;;;;;38.30;29.70;;;4.60;91.90;;;;;;6142504;28;20490;-60
2022/12/15 14:49:36;;;;;;;36.53;30.17;;;4.60;92.20;;;;;;6142819;28;20495;-60
2022/12/15 14:52:43;;;;;;;45.67;31.33;;;4.60;92.30;;;;;;6136643;28;20472;-60
2022/12/15 14:55:46;;;;;;;45.53;31.97;;;4.60;92.40;;;;;;6143784;28;20479;-60
2022/12/15 14:58:58;;;;;;;41.80;33.10;;;4.60;92.50;;;;;;6143426;28;20450;-60
2022/12/15 15:02:11;;;;;;;40.07;31.77;;;4.60;92.60;;;;;;6152337;28;20443;-60
2022/12/15 15:05:27;;;;;;;42.30;31.47;;;4.60;92.70;;;;;;6151497;28;20534;-59
2022/12/15 15:08:34;;;;;;;42.53;33.00;;;4.60;92.80;;;;;;6150570;28;20534;-60
2022/12/15 15:11:41;;;;;;;42.13;30.97;;;4.60;92.90;;;;;;6150571;28;20523;-59
2022/12/15 15:14:46;;;;;;;42.30;30.77;;;4.60;92.90;;;;;;6152150;28;20479;-59
2022/12/15 15:17:52;;;;;;;42.70;31.27;;;4.60;93.00;;;;;;6154652;28;20479;-60
2022/12/15 15:20:58;;;;;;;38.83;31.03;;;4.60;93.10;;;;;;6156760;28;20833;-60
2022/12/15 15:24:20;;;;;;;45.40;31.57;;;4.60;93.20;;;;;;6156576;28;20848;-58
2022/12/15 15:27:25;;;;;;;42.23;30.23;;;4.60;93.30;;;;;;6156214;28;20440;-59
2022/12/15 15:30:30;;;;;;;40.57;29.47;;;4.60;93.30;;;;;;6156929;28;20565;-59
2022/12/15 15:33:33;;;;;;;40.10;32.10;;;4.50;93.30;;;;;;6156393;28;20481;-59
2022/12/15 15:36:38;;;;;;;41.97;30.63;;;4.50;93.50;;;;;;6157091;28;20471;-60
2022/12/15 15:39:43;;;;;;;42.13;29.47;;;4.40;93.60;;;;;;6156296;28;20466;-59
2022/12/15 15:42:47;;;;;;;40.90;30.67;;;4.40;93.80;;;;;;6156618;28;20698;-59
2022/12/15 15:45:58;;;;;;;42.97;32.90;;;4.40;93.90;;;;;;6147228;28;20487;-58
2022/12/15 15:49:05;;;;;;;39.33;30.03;;;4.40;94.10;;;;;;6156372;28;20498;-58
2022/12/15 15:52:09;;;;;;;43.23;32.23;;;4.40;94.20;;;;;;6156087;28;20478;-59
2022/12/15 15:55:24;;;;;;;41.90;30.70;;;4.40;94.30;;;;;;6161270;28;20482;-58
2022/12/15 15:58:27;;;;;;;41.63;30.80;;;4.30;94.40;;;;;;6179308;28;20489;-58
2022/12/15 16:01:31;;;;;;;40.80;29.90;;;4.30;94.60;;;;;;6163327;28;20467;-58
2022/12/15 16:04:36;;;;;;;43.83;32.57;;;4.30;94.60;;;;;;6154049;28;20563;-59
2022/12/15 16:07:39;;;;;;;46.77;34.30;;;4.30;94.70;;;;;;6153995;28;20816;-58
2022/12/15 16:10:47;;;;;;;50.40;33.73;;;4.20;95.10;;;;;;6153842;28;20475;-59
2022/12/15 16:13:50;;;;;;;44.50;33.73;;;4.20;95.40;;;;;;6153992;28;20465;-59
2022/12/15 16:16:53;;;;;;;51.43;36.30;;;4.20;95.50;;;;;;6154957;28;20446;-60
2022/12/15 16:19:56;;;;;;;49.97;36.07;;;4.20;95.50;;;;;;6153342;28;20458;-60
2022/12/15 16:23:02;;;;;;;56.57;41.40;;;4.20;95.60;;;;;;6152832;28;20517;-59
2022/12/15 16:26:14;;;;;;;59.87;38.27;;;4.30;95.80;;;;;;6129290;28;20476;-59
2022/12/15 16:29:19;;;;;;;52.83;40.83;;;4.20;95.90;;;;;;6128852;28;20849;-59
2022/12/15 16:32:22;;;;;;;59.67;42.10;;;4.20;96.00;;;;;;6138303;28;20955;-60
2022/12/15 16:35:26;;;;;;;61.13;43.03;;;4.20;96.10;;;;;;6152739;28;20470;-59
2022/12/15 16:38:31;;;;;;;57.13;40.93;;;4.20;96.20;;;;;;6153125;28;20823;-60
2022/12/15 16:41:36;;;;;;;57.57;40.70;;;4.20;96.40;;;;;;6152802;28;20515;-59
2022/12/15 16:44:39;;;;;;;50.40;38.93;;;4.20;96.50;;;;;;6145700;28;20482;-60
2022/12/15 16:47:43;;;;;;;51.27;38.37;;;4.20;96.50;;;;;;6125065;28;20476;-61
2022/12/15 16:50:50;;;;;;;52.20;36.37;;;4.20;96.50;;;;;;6130402;28;20944;-61
2022/12/15 16:53:54;;;;;;;53.13;37.13;;;4.30;96.50;;;;;;6129280;28;20528;-59
2022/12/15 16:57:00;;;;;;;54.80;37.63;;;4.20;96.50;;;;;;6167840;28;20470;-59
2022/12/15 17:00:14;;;;;;;49.10;36.27;;;4.20;96.70;;;;;;6176623;28;20478;-59
2022/12/15 17:03:21;;;;;;;50.57;36.87;;;4.20;96.70;;;;;;6176519;28;20565;-59
2022/12/15 17:06:26;;;;;;;53.47;38.27;;;4.10;96.80;;;;;;6177774;28;20486;-59
2022/12/15 17:09:34;;;;;;;47.73;35.13;;;3.90;96.80;;;;;;6176107;28;21000;-59
2022/12/15 17:12:38;;;;;;;46.57;35.33;;;3.60;97.30;;;;;;6176077;28;20568;-59
2022/12/15 17:15:42;;;;;;;46.43;34.70;;;3.60;97.50;;;;;;6176018;28;21249;-59
2022/12/15 17:18:45;;;;;;;49.40;32.80;;;3.50;97.60;;;;;;6176367;28;20809;-59
2022/12/15 17:21:51;;;;;;;46.67;35.30;;;3.60;98.20;;;;;;6175600;28;20469;-59
2022/12/15 17:24:55;;;;;;;48.00;32.10;;;3.50;97.90;;;;;;6175832;28;20796;-61
2022/12/15 17:28:05;;;;;;;43.83;33.20;;;3.50;98.20;;;;;;6175356;28;20989;-62
2022/12/15 17:31:16;;;;;;;45.83;34.90;;;3.50;98.20;;;;;;6175808;28;20544;-60
2022/12/15 17:34:27;;;;;;;52.10;35.77;;;3.50;98.60;;;;;;6127709;28;20480;-61
2022/12/15 17:37:31;;;;;;;51.37;33.83;;;3.50;98.50;;;;;;6127793;28;20464;-60
2022/12/15 17:40:38;;;;;;;47.00;33.73;;;3.50;98.50;;;;;;6126617;28;20630;-60
2022/12/15 17:43:43;;;;;;;43.20;30.40;;;3.50;98.60;;;;;;6143254;28;20474;-60
2022/12/15 17:46:47;;;;;;;48.20;33.37;;;3.60;98.60;;;;;;6151113;28;20471;-60
2022/12/15 17:49:51;;;;;;;47.37;33.23;;;3.60;98.60;;;;;;6151019;28;20438;-60
2022/12/15 17:52:54;;;;;;;43.03;34.00;;;3.60;98.60;;;;;;6154773;28;20934;-60
2022/12/15 17:55:58;;;;;;;49.83;34.30;;;3.60;98.60;;;;;;6174724;28;20450;-60
2022/12/15 17:59:04;;;;;;;49.87;34.17;;;3.70;98.60;;;;;;6175084;28;20890;-60
2022/12/15 18:02:10;;;;;;;48.70;32.73;;;3.70;98.60;;;;;;6174513;28;20477;-60
2022/12/15 18:05:16;;;;;;;47.67;33.40;;;3.70;98.60;;;;;;6175409;28;20563;-61
2022/12/15 18:08:21;;;;;;;50.17;40.63;;;3.80;98.70;;;;;;6175618;28;20477;-59
2022/12/15 18:11:25;;;;;;;55.67;39.17;;;3.70;98.60;;;;;;6175166;28;20481;-59
2022/12/15 18:14:30;;;;;;;53.67;37.70;;;3.70;98.60;;;;;;6175152;28;20485;-59
2022/12/15 18:17:33;;;;;;;49.90;36.77;;;3.70;98.60;;;;;;6162016;28;20486;-59
2022/12/15 18:20:37;;;;;;;50.40;34.67;;;3.70;98.60;;;;;;6147156;28;20479;-60
2022/12/15 18:23:41;;;;;;;44.43;33.67;;;3.70;98.60;;;;;;6150967;28;20482;-61
2022/12/15 18:26:46;;;;;;;48.27;33.87;;;3.60;98.80;;;;;;6151483;28;20554;-62
2022/12/15 18:29:51;;;;;;;51.50;37.73;;;3.50;99.40;;;;;;6149865;28;20474;-62